Time;durP1;ratioP1;P1;durP2;ratioP2;P2;SDS_P1;SDS_P2;PMS_P1;PMS_P2;Temp;Humidity;BMP_temperature;BMP_pressure;BME280_temperature;BME280_humidity;BME280_pressure;Samples;Min_cycle;Max_cycle;Signal;HPM_P1;HPM_P2
2022/01/03 00:00:12;;;;;;;0.30;0.20;;;;;;;9.80;81.16;99922.72;5020410;28;20210;-71
2022/01/03 00:02:40;;;;;;;0.53;0.33;;;;;;;9.79;81.22;99923.69;5020398;28;20218;-70
2022/01/03 00:05:08;;;;;;;2.00;0.50;;;;;;;9.80;81.46;99919.22;5022712;28;20720;-70
2022/01/03 00:07:37;;;;;;;0.90;0.50;;;;;;;9.79;81.40;99936.97;5017527;28;20226;-70
2022/01/03 00:10:05;;;;;;;2.47;0.73;;;;;;;9.79;81.61;99920.19;5023135;28;20218;-70
2022/01/03 00:12:32;;;;;;;0.60;0.60;;;;;;;9.80;81.89;99911.25;5029304;28;20202;-70
2022/01/03 00:15:00;;;;;;;1.03;0.90;;;;;;;9.81;82.28;99913.78;5024098;28;20226;-69
2022/01/03 00:17:27;;;;;;;2.63;1.40;;;;;;;9.85;82.09;99925.91;5024044;28;20202;-70
2022/01/03 00:19:53;;;;;;;1.83;1.60;;;;;;;9.89;81.96;99922.06;5024002;28;20208;-69
2022/01/03 00:22:22;;;;;;;2.07;1.87;;;;;;;9.91;82.10;99925.47;5015046;28;20602;-69
2022/01/03 00:25:02;;;;;;;3.80;2.60;;;;;;;9.93;82.09;99922.69;5022420;28;20223;-70
2022/01/03 00:27:40;;;;;;;4.13;3.27;;;;;;;9.95;82.32;99928.75;5020150;28;20231;-69
2022/01/03 00:30:10;;;;;;;5.40;1.90;;;;;;;9.94;82.50;99919.06;5018205;28;20207;-70
2022/01/03 00:32:38;;;;;;;3.23;2.33;;;;;;;9.98;82.08;99941.84;5020374;28;20203;-71
2022/01/03 00:35:06;;;;;;;4.50;2.30;;;;;;;9.99;82.15;99925.75;5025891;28;20233;-70
2022/01/03 00:37:35;;;;;;;4.40;2.17;;;;;;;10.01;81.90;99931.81;5023670;28;20209;-70
2022/01/03 00:40:02;;;;;;;3.03;1.77;;;;;;;10.05;82.28;99937.75;5023994;28;20704;-70
2022/01/03 00:42:32;;;;;;;3.53;1.80;;;;;;;10.08;81.51;99932.22;5020793;28;20210;-70
2022/01/03 00:45:00;;;;;;;3.83;2.13;;;;;;;10.07;81.53;99934.03;5015239;28;20226;-70
2022/01/03 00:47:32;;;;;;;3.77;2.40;;;;;;;10.10;81.60;99935.63;5018977;28;20219;-71
2022/01/03 00:49:59;;;;;;;4.53;2.53;;;;;;;10.14;81.25;99930.94;5020511;28;20210;-69
2022/01/03 00:52:26;;;;;;;4.20;1.83;;;;;;;10.11;80.78;99934.66;5015575;28;20218;-70
2022/01/03 00:54:52;;;;;;;5.67;2.17;;;;;;;10.13;80.84;99930.09;5015855;28;20241;-69
2022/01/03 00:57:25;;;;;;;3.73;1.93;;;;;;;10.15;80.52;99922.00;5017862;28;20683;-71
2022/01/03 01:00:02;;;;;;;3.73;1.70;;;;;;;10.15;80.02;99938.81;5023315;28;20213;-70
2022/01/03 01:02:36;;;;;;;3.73;1.30;;;;;;;10.16;79.94;99929.00;5020972;28;20198;-70
2022/01/03 01:05:03;;;;;;;4.50;1.37;;;;;;;10.16;79.52;99929.88;5018117;28;20535;-70
2022/01/03 01:07:31;;;;;;;5.30;1.33;;;;;;;10.16;79.20;99943.16;5016585;28;20230;-70
2022/01/03 01:10:17;;;;;;;2.43;1.30;;;;;;;10.14;78.72;99945.09;5024388;28;20210;-70
2022/01/03 01:12:46;;;;;;;1.90;1.17;;;;;;;10.16;78.36;99935.19;5017215;28;20205;-69
2022/01/03 01:15:14;;;;;;;3.57;1.40;;;;;;;10.16;78.00;99932.53;5014418;28;20331;-72
2022/01/03 01:17:43;;;;;;;3.90;1.57;;;;;;;10.18;78.05;99940.41;5025542;28;20205;-70
2022/01/03 01:20:12;;;;;;;5.37;1.70;;;;;;;10.18;77.22;99935.94;5036764;28;20628;-70
2022/01/03 01:22:38;;;;;;;3.80;1.13;;;;;;;10.16;77.37;99950.28;5031179;28;20269;-70
2022/01/03 01:27:46;;;;;;;4.93;1.60;;;;;;;10.16;77.04;99934.34;5018742;28;20243;-69
2022/01/03 01:28:15;;;;;;;4.40;1.60;;;;;;;10.19;77.03;99952.78;5020636;28;20715;-69
2022/01/03 01:30:43;;;;;;;3.80;1.30;;;;;;;10.18;76.67;99956.38;5031319;28;20760;-71
2022/01/03 01:33:12;;;;;;;6.63;1.23;;;;;;;10.15;76.50;99953.91;5025156;28;20680;-70
2022/01/03 01:35:43;;;;;;;6.10;1.17;;;;;;;10.14;75.95;99969.03;5012435;28;20225;-70
2022/01/03 01:38:11;;;;;;;3.20;1.13;;;;;;;10.09;75.34;99961.38;5029187;28;20213;-69
2022/01/03 01:40:46;;;;;;;2.13;0.90;;;;;;;10.09;74.37;99948.06;5031041;28;20210;-70
2022/01/03 01:43:14;;;;;;;3.77;0.77;;;;;;;10.10;74.19;99951.59;5024343;28;20207;-70
2022/01/03 01:45:43;;;;;;;3.53;0.90;;;;;;;10.08;74.09;99975.63;5033135;28;20213;-71
2022/01/03 01:48:13;;;;;;;3.03;0.97;;;;;;;10.04;72.49;99973.28;5027236;28;20700;-69
2022/01/03 01:50:42;;;;;;;4.93;1.10;;;;;;;10.00;71.70;99969.19;5033808;28;20255;-69
2022/01/03 01:53:09;;;;;;;4.57;0.90;;;;;;;10.00;71.47;99966.53;5034711;28;20214;-69
2022/01/03 01:55:41;;;;;;;8.30;1.60;;;;;;;10.01;71.28;99971.72;5032308;28;20575;-70
2022/01/03 01:58:24;;;;;;;5.40;1.20;;;;;;;10.02;71.11;99991.22;5020489;28;20689;-70
2022/01/03 02:00:59;;;;;;;6.00;1.10;;;;;;;10.02;70.91;99993.88;5014850;28;20202;-70
2022/01/03 02:03:38;;;;;;;6.57;1.07;;;;;;;9.97;70.70;99985.34;5019077;28;20216;-71
2022/01/03 02:06:19;;;;;;;3.33;1.03;;;;;;;9.95;70.52;100001.41;5020399;28;20213;-71
2022/01/03 02:08:57;;;;;;;6.37;0.90;;;;;;;9.98;70.45;100016.31;5019332;28;20231;-69
2022/01/03 02:11:31;;;;;;;2.93;1.00;;;;;;;9.99;70.71;100016.22;5015454;28;20203;-70
2022/01/03 02:13:59;;;;;;;7.83;1.43;;;;;;;9.97;70.89;100015.47;5016124;28;20229;-69
2022/01/03 02:16:25;;;;;;;7.93;1.47;;;;;;;9.96;71.07;100012.91;5020404;28;20199;-70
2022/01/03 02:18:53;;;;;;;5.70;1.43;;;;;;;9.91;71.55;100031.84;5020125;28;20206;-69
2022/01/03 02:21:21;;;;;;;5.03;1.40;;;;;;;9.90;71.75;100030.16;5014859;28;20202;-70
2022/01/03 02:23:48;;;;;;;3.63;1.13;;;;;;;9.90;71.69;100045.25;5022891;28;20737;-70
2022/01/03 02:26:14;;;;;;;4.00;1.00;;;;;;;9.89;72.12;100038.22;5022663;28;20218;-69
2022/01/03 02:28:41;;;;;;;7.97;1.57;;;;;;;9.89;72.07;100046.22;5013769;28;20245;-69
2022/01/03 02:31:07;;;;;;;7.23;1.93;;;;;;;9.89;72.22;100052.38;5025449;28;20718;-70
2022/01/03 02:33:34;;;;;;;4.03;1.00;;;;;;;9.89;72.36;100049.72;5024136;28;20225;-70
2022/01/03 02:36:01;;;;;;;6.50;1.40;;;;;;;9.91;72.66;100062.91;5026247;28;20684;-72
2022/01/03 02:38:29;;;;;;;4.57;1.10;;;;;;;9.90;72.42;100051.44;5020201;28;20209;-70
2022/01/03 02:40:56;;;;;;;6.07;1.20;;;;;;;9.90;72.57;100053.22;5018749;28;20214;-69
2022/01/03 02:43:23;;;;;;;4.37;1.00;;;;;;;9.86;72.58;100063.22;5026619;28;20209;-70
2022/01/03 02:45:50;;;;;;;5.80;1.40;;;;;;;9.82;72.61;100064.44;5022823;28;20214;-69
2022/01/03 02:48:16;;;;;;;6.27;1.37;;;;;;;9.82;72.99;100072.41;5024483;28;20226;-70
2022/01/03 02:50:43;;;;;;;8.43;1.50;;;;;;;9.82;72.78;100068.91;5025354;28;20206;-71
2022/01/03 02:53:09;;;;;;;6.20;1.10;;;;;;;9.81;73.33;100068.03;5016711;28;20210;-70
2022/01/03 02:55:37;;;;;;;10.77;1.77;;;;;;;9.81;73.70;100067.19;5024057;28;20580;-70
2022/01/03 02:58:07;;;;;;;3.00;0.90;;;;;;;9.81;73.29;100069.84;5017504;28;20211;-70
2022/01/03 03:00:37;;;;;;;4.43;1.07;;;;;;;9.79;73.91;100058.47;5027057;28;20662;-72
2022/01/03 03:03:04;;;;;;;7.20;1.47;;;;;;;9.80;73.99;100062.81;5013561;28;20230;-70
2022/01/03 03:05:31;;;;;;;5.63;1.73;;;;;;;9.76;73.79;100064.84;5035407;28;20320;-70
2022/01/03 03:07:57;;;;;;;8.17;1.57;;;;;;;9.75;73.96;100071.97;5018123;28;20227;-69
2022/01/03 03:10:26;;;;;;;8.10;1.50;;;;;;;9.77;74.35;100079.00;5024946;28;20599;-69
2022/01/03 03:12:54;;;;;;;4.33;1.40;;;;;;;9.73;74.45;100079.19;5028178;28;20206;-69
2022/01/03 03:15:21;;;;;;;6.07;1.30;;;;;;;9.74;73.92;100083.56;5026368;28;20710;-70
2022/01/03 03:17:48;;;;;;;6.13;1.13;;;;;;;9.72;74.50;100079.28;5023573;28;20217;-70
2022/01/03 03:20:17;;;;;;;6.20;1.20;;;;;;;9.69;74.04;100074.19;5024084;28;20407;-69
2022/01/03 03:22:44;;;;;;;12.40;2.20;;;;;;;9.68;74.50;100081.31;5018729;28;20256;-70
2022/01/03 03:25:14;;;;;;;7.77;1.20;;;;;;;9.68;74.45;100089.28;5020569;28;20233;-71
2022/01/03 03:27:44;;;;;;;6.67;1.53;;;;;;;9.66;74.57;100091.22;5019657;28;20202;-70
2022/01/03 03:30:14;;;;;;;6.90;1.67;;;;;;;9.67;74.33;100102.72;5026424;28;20245;-69
2022/01/03 03:32:43;;;;;;;7.97;2.10;;;;;;;9.63;74.47;100110.03;5021598;28;20202;-70
2022/01/03 03:35:10;;;;;;;6.80;1.63;;;;;;;9.65;74.68;100096.66;5047939;22;20267;-72
2022/01/03 03:37:37;;;;;;;6.63;1.10;;;;;;;9.65;74.41;100099.31;5025521;28;20210;-72
2022/01/03 03:40:05;;;;;;;6.63;1.77;;;;;;;9.67;74.76;100092.09;5025729;28;20210;-72
2022/01/03 03:42:31;;;;;;;6.70;1.67;;;;;;;9.64;74.88;100105.56;5028118;28;20591;-72
2022/01/03 03:44:58;;;;;;;5.10;1.50;;;;;;;9.64;74.40;100101.09;5023651;28;20230;-72
2022/01/03 03:47:26;;;;;;;4.70;1.20;;;;;;;9.62;74.77;100097.69;4997185;28;20214;-72
2022/01/03 03:49:53;;;;;;;5.53;1.90;;;;;;;9.60;74.49;100096.94;5014092;28;20237;-72
2022/01/03 03:52:19;;;;;;;6.60;1.40;;;;;;;9.61;74.50;100098.66;5005430;28;20208;-72
2022/01/03 03:54:46;;;;;;;5.07;2.10;;;;;;;9.62;74.29;100116.31;5005202;28;20234;-72
2022/01/03 03:57:13;;;;;;;8.13;1.93;;;;;;;9.61;74.34;100103.13;5003268;28;20210;-70
2022/01/03 03:59:40;;;;;;;10.37;1.63;;;;;;;9.62;74.44;100095.03;5022697;28;20210;-70
2022/01/03 04:02:07;;;;;;;10.63;2.00;;;;;;;9.61;73.90;100098.66;5009578;28;20226;-70
2022/01/03 04:04:35;;;;;;;7.97;1.57;;;;;;;9.64;74.30;100108.22;5009610;28;20237;-70
2022/01/03 04:07:03;;;;;;;8.23;1.60;;;;;;;9.65;73.71;100100.16;5006271;28;20217;-70
2022/01/03 04:09:30;;;;;;;9.73;1.93;;;;;;;9.65;73.89;100104.63;5006628;28;20596;-70
2022/01/03 04:11:56;;;;;;;4.20;1.37;;;;;;;9.63;74.01;100112.69;5012049;28;20214;-70
2022/01/03 04:14:23;;;;;;;7.47;1.70;;;;;;;9.65;73.84;100105.47;5026348;28;20213;-70
2022/01/03 04:16:49;;;;;;;9.80;1.77;;;;;;;9.65;73.99;100113.44;5013902;28;20207;-69
2022/01/03 04:19:16;;;;;;;8.00;1.80;;;;;;;9.67;74.16;100108.03;5009440;28;20206;-70
2022/01/03 04:21:44;;;;;;;10.73;1.73;;;;;;;9.67;73.79;100106.19;5015509;28;20219;-69
2022/01/03 04:24:12;;;;;;;7.40;1.50;;;;;;;9.64;73.79;100103.78;5022356;28;20599;-70
2022/01/03 04:26:40;;;;;;;6.80;1.80;;;;;;;9.62;73.86;100111.00;5020735;28;20213;-72
2022/01/03 04:29:07;;;;;;;8.20;1.80;;;;;;;9.64;74.16;100121.53;5014930;28;20214;-72
2022/01/03 04:31:34;;;;;;;7.13;1.87;;;;;;;9.62;73.96;100111.00;5008782;28;20572;-71
2022/01/03 04:34:00;;;;;;;9.43;1.80;;;;;;;9.63;74.24;100115.34;5017339;28;20291;-71
2022/01/03 04:36:27;;;;;;;10.07;1.97;;;;;;;9.62;74.07;100116.31;5012636;28;20237;-72
2022/01/03 04:38:55;;;;;;;6.37;1.90;;;;;;;9.63;74.22;100112.69;5023787;28;20703;-72
2022/01/03 04:41:22;;;;;;;9.90;2.00;;;;;;;9.62;74.71;100123.44;5025388;28;20218;-72
2022/01/03 04:43:48;;;;;;;5.50;1.90;;;;;;;9.61;74.65;100125.25;5018162;28;20229;-72
2022/01/03 04:46:15;;;;;;;8.90;2.03;;;;;;;9.62;74.85;100120.78;5028446;28;20250;-72
2022/01/03 04:48:42;;;;;;;11.23;2.20;;;;;;;9.61;74.91;100119.94;5012702;28;20199;-72
2022/01/03 04:51:09;;;;;;;7.93;2.00;;;;;;;9.60;75.14;100115.56;5007719;28;20681;-72
2022/01/03 04:53:39;;;;;;;9.33;2.40;;;;;;;9.62;75.23;100104.81;5027259;28;20207;-72
2022/01/03 04:56:08;;;;;;;9.53;2.73;;;;;;;9.60;74.92;100096.94;5023409;28;20223;-72
2022/01/03 04:58:35;;;;;;;9.40;2.40;;;;;;;9.58;75.60;100108.63;5011376;28;20235;-71
2022/01/03 05:01:02;;;;;;;8.33;2.10;;;;;;;9.55;75.48;100114.16;5011770;28;20215;-72
2022/01/03 05:03:28;;;;;;;8.33;2.57;;;;;;;9.52;75.46;100107.25;5019161;28;20208;-72
2022/01/03 05:05:55;;;;;;;6.83;1.87;;;;;;;9.52;75.94;100111.69;5020004;28;20714;-72
2022/01/03 05:08:21;;;;;;;7.17;2.30;;;;;;;9.51;76.13;100121.47;5011357;28;20207;-72
2022/01/03 05:10:48;;;;;;;9.27;2.30;;;;;;;9.51;76.26;100112.66;5025204;28;20206;-72
2022/01/03 05:13:16;;;;;;;11.63;2.67;;;;;;;9.49;76.28;100115.44;5023249;28;20209;-72
2022/01/03 05:15:42;;;;;;;9.83;3.10;;;;;;;9.51;76.90;100115.31;5008362;28;20231;-72
2022/01/03 05:18:09;;;;;;;8.80;2.70;;;;;;;9.51;76.30;100118.81;5019931;28;20215;-72
2022/01/03 05:20:35;;;;;;;10.73;2.90;;;;;;;9.52;76.76;100127.66;5020450;28;20226;-72
2022/01/03 05:23:02;;;;;;;10.73;3.00;;;;;;;9.50;77.19;100135.72;5022695;28;20233;-72
2022/01/03 05:25:28;;;;;;;9.30;2.70;;;;;;;9.50;77.50;100137.53;5022592;28;20226;-71
2022/01/03 05:27:55;;;;;;;8.00;3.47;;;;;;;9.45;77.70;100137.88;5025728;28;20221;-72
2022/01/03 05:30:23;;;;;;;10.23;3.13;;;;;;;9.45;77.74;100134.34;5018943;28;20203;-72
2022/01/03 05:32:49;;;;;;;10.70;3.47;;;;;;;9.44;77.93;100137.97;5024585;28;20198;-72
2022/01/03 05:35:16;;;;;;;15.03;3.47;;;;;;;9.43;78.16;100130.94;5017670;28;20732;-72
2022/01/03 05:37:42;;;;;;;12.27;3.90;;;;;;;9.43;77.82;100137.13;5024896;28;20206;-71
2022/01/03 05:40:10;;;;;;;10.93;3.73;;;;;;;9.37;77.85;100135.69;5006472;28;20234;-70
2022/01/03 05:42:37;;;;;;;15.00;3.90;;;;;;;9.36;78.59;100133.16;5017862;28;20206;-70
2022/01/03 05:45:04;;;;;;;13.43;3.63;;;;;;;9.36;78.28;100134.00;5021058;28;20699;-70
2022/01/03 05:47:32;;;;;;;13.43;4.40;;;;;;;9.33;78.70;100128.88;5013693;28;20258;-70
2022/01/03 05:49:59;;;;;;;9.77;4.07;;;;;;;9.35;78.37;100126.97;5016159;28;20217;-70
2022/01/03 05:52:26;;;;;;;8.30;4.37;;;;;;;9.35;78.27;100121.66;5023914;28;20321;-70
2022/01/03 05:54:53;;;;;;;13.43;4.10;;;;;;;9.34;78.16;100138.56;5011807;28;20234;-70
2022/01/03 05:57:19;;;;;;;14.20;4.50;;;;;;;9.31;78.23;100129.97;5003782;28;20211;-70
2022/01/03 05:59:46;;;;;;;12.23;4.10;;;;;;;9.30;78.15;100097.22;5012084;28;20563;-70
2022/01/03 06:02:12;;;;;;;13.07;3.63;;;;;;;9.30;77.56;100130.91;5008903;28;20210;-70
2022/01/03 06:04:53;;;;;;;8.90;3.10;;;;;;;9.32;77.80;100134.28;5010198;28;20637;-70
2022/01/03 06:07:21;;;;;;;12.93;3.63;;;;;;;9.31;77.39;100127.31;5028859;28;20202;-70
2022/01/03 06:09:49;;;;;;;11.00;3.67;;;;;;;9.30;78.20;100128.25;5003590;28;20206;-70
2022/01/03 06:12:17;;;;;;;12.03;3.40;;;;;;;9.31;77.65;100143.25;5011797;28;20202;-70
2022/01/03 06:14:44;;;;;;;12.07;4.17;;;;;;;9.32;77.75;100143.13;5019046;28;20222;-70
2022/01/03 06:17:11;;;;;;;14.93;4.00;;;;;;;9.34;78.17;100143.03;5013316;28;20234;-70
2022/01/03 06:19:38;;;;;;;14.80;4.40;;;;;;;9.34;77.95;100135.03;5008401;28;20222;-70
2022/01/03 06:22:07;;;;;;;10.50;3.80;;;;;;;9.32;77.95;100145.78;5011823;28;20207;-70
2022/01/03 06:24:34;;;;;;;11.13;3.57;;;;;;;9.32;78.54;100147.59;5005205;28;21127;-70
2022/01/03 06:27:00;;;;;;;11.90;4.00;;;;;;;9.34;78.32;100146.53;5007453;28;20591;-70
2022/01/03 06:29:27;;;;;;;12.67;3.93;;;;;;;9.34;78.42;100148.34;5013364;28;20221;-71
2022/01/03 06:31:53;;;;;;;14.03;4.80;;;;;;;9.32;78.71;100140.47;5008258;28;20213;-71
2022/01/03 06:34:20;;;;;;;8.10;3.10;;;;;;;9.32;78.53;100145.78;5011500;28;20214;-72
2022/01/03 06:36:47;;;;;;;16.63;3.87;;;;;;;9.31;78.37;100154.72;5002663;28;20211;-71
2022/01/03 06:39:15;;;;;;;11.63;3.77;;;;;;;9.31;78.68;100148.56;5010811;28;20226;-71
2022/01/03 06:41:43;;;;;;;13.20;4.27;;;;;;;9.30;78.16;100144.19;5011476;28;20678;-71
2022/01/03 06:44:09;;;;;;;10.57;3.67;;;;;;;9.27;78.75;100149.72;5009245;28;20203;-71
2022/01/03 06:46:36;;;;;;;14.10;4.37;;;;;;;9.28;78.11;100135.47;5010355;28;20206;-70
2022/01/03 06:49:05;;;;;;;11.83;4.07;;;;;;;9.31;78.04;100154.72;5012042;28;20235;-71
2022/01/03 06:51:34;;;;;;;7.77;3.83;;;;;;;9.31;78.58;100159.19;5013409;28;20628;-71
2022/01/03 06:54:01;;;;;;;12.13;4.33;;;;;;;9.26;78.42;100151.50;5014219;28;20210;-71
2022/01/03 06:56:29;;;;;;;14.33;4.67;;;;;;;9.26;78.46;100158.63;5007480;28;20218;-71
2022/01/03 06:58:56;;;;;;;9.57;3.63;;;;;;;9.25;78.12;100167.56;5008782;28;20230;-71
2022/01/03 07:01:23;;;;;;;11.20;4.87;;;;;;;9.26;78.45;100174.59;5007890;28;20214;-71
2022/01/03 07:03:49;;;;;;;8.67;4.40;;;;;;;9.28;78.33;100167.38;4997163;28;20299;-71
2022/01/03 07:06:16;;;;;;;12.60;5.23;;;;;;;9.29;77.79;100171.72;5007951;28;20227;-71
2022/01/03 07:08:42;;;;;;;19.17;4.57;;;;;;;9.28;78.31;100175.34;5010596;28;20228;-71
2022/01/03 07:11:09;;;;;;;15.93;4.47;;;;;;;9.32;78.51;100180.31;5003441;28;20207;-71
2022/01/03 07:13:44;;;;;;;18.97;4.93;;;;;;;9.31;77.91;100180.47;5002090;28;20211;-71
2022/01/03 07:18:59;;;;;;;13.13;4.70;;;;;;;9.29;77.64;100180.56;5007311;28;20210;-71
2022/01/03 07:21:28;;;;;;;15.73;5.03;;;;;;;9.31;77.96;100186.63;5004667;28;20214;-71
2022/01/03 07:23:55;;;;;;;14.37;4.93;;;;;;;9.32;77.43;100187.44;5004993;28;20211;-71
2022/01/03 07:26:22;;;;;;;13.73;4.47;;;;;;;9.32;77.85;100192.75;5003831;28;20223;-72
2022/01/03 07:28:50;;;;;;;12.50;5.27;;;;;;;9.32;77.91;100190.94;5004807;28;20219;-71
2022/01/03 07:31:16;;;;;;;13.10;4.40;;;;;;;9.32;77.38;100187.44;5008978;28;20209;-71
2022/01/03 07:33:43;;;;;;;13.57;4.87;;;;;;;9.34;77.34;100180.22;5004457;28;20206;-71
2022/01/03 07:36:10;;;;;;;12.33;4.50;;;;;;;9.33;77.50;100187.34;5004882;28;20239;-71
2022/01/03 07:38:38;;;;;;;14.53;4.77;;;;;;;9.29;77.40;100193.84;5010711;28;20198;-71
2022/01/03 07:41:05;;;;;;;12.80;4.30;;;;;;;9.29;77.88;100199.16;5007854;28;20227;-71
2022/01/03 07:43:31;;;;;;;12.00;3.90;;;;;;;9.29;77.87;100193.84;5014486;28;20198;-70
2022/01/03 07:45:59;;;;;;;9.43;3.77;;;;;;;9.31;77.50;100188.44;5015463;28;20238;-71
2022/01/03 07:48:26;;;;;;;11.50;3.63;;;;;;;9.32;77.00;100193.59;5014077;28;20202;-71
2022/01/03 07:50:52;;;;;;;10.37;4.30;;;;;;;9.30;77.64;100184.91;5023719;28;20206;-70
2022/01/03 07:53:19;;;;;;;11.57;3.63;;;;;;;9.28;77.13;100185.97;5025340;28;20206;-71
2022/01/03 07:55:45;;;;;;;12.17;3.90;;;;;;;9.31;76.96;100183.97;5017330;28;20599;-70
2022/01/03 07:58:15;;;;;;;7.70;3.07;;;;;;;9.31;77.35;100175.13;5012914;28;20202;-71
2022/01/03 08:00:41;;;;;;;12.03;3.73;;;;;;;9.30;76.95;100194.69;5012136;28;20219;-71
2022/01/03 08:03:09;;;;;;;17.20;3.73;;;;;;;9.32;76.70;100192.75;5009438;28;20625;-71
2022/01/03 08:05:36;;;;;;;16.07;4.00;;;;;;;9.32;76.82;100187.44;5018349;28;20230;-70
2022/01/03 08:08:03;;;;;;;9.73;3.20;;;;;;;9.34;76.99;100188.19;5012088;28;20210;-71
2022/01/03 08:10:30;;;;;;;13.20;3.63;;;;;;;9.34;76.68;100178.41;5014583;28;20210;-71
2022/01/03 08:12:56;;;;;;;16.07;4.70;;;;;;;9.35;76.94;100187.25;5022141;28;20210;-71
2022/01/03 08:15:24;;;;;;;9.33;3.20;;;;;;;9.37;76.68;100193.31;5026377;28;20233;-71
2022/01/03 08:17:50;;;;;;;18.03;6.97;;;;;;;9.37;76.79;100190.66;5017869;28;20212;-76
2022/01/03 08:20:19;;;;;;;9.33;3.87;;;;;;;9.37;76.65;100188.00;5029115;28;20253;-76
2022/01/03 08:22:46;;;;;;;12.93;4.97;;;;;;;9.39;76.57;100192.28;5005913;28;20207;-76
2022/01/03 08:25:13;;;;;;;12.47;3.63;;;;;;;9.40;76.11;100193.13;5006660;28;20725;-76
2022/01/03 08:27:40;;;;;;;9.43;3.60;;;;;;;9.42;76.05;100196.53;5015560;28;20585;-73
2022/01/03 08:30:07;;;;;;;10.83;3.53;;;;;;;9.44;75.95;100189.31;5002996;28;20202;-72
2022/01/03 08:32:34;;;;;;;12.27;3.53;;;;;;;9.44;75.95;100185.81;5014602;28;20217;-73
2022/01/03 08:35:00;;;;;;;15.37;4.87;;;;;;;9.42;75.72;100177.94;5010618;28;20239;-73
2022/01/03 08:37:28;;;;;;;11.07;4.20;;;;;;;9.46;75.13;100182.09;5021618;28;20211;-73
2022/01/03 08:39:55;;;;;;;10.57;3.20;;;;;;;9.45;75.39;100187.50;5013100;28;20219;-73
2022/01/03 08:42:23;;;;;;;10.70;3.90;;;;;;;9.46;74.99;100178.59;5007562;28;20206;-74
2022/01/03 08:44:49;;;;;;;13.90;3.83;;;;;;;9.49;75.25;100181.03;5004288;28;20226;-73
2022/01/03 08:47:16;;;;;;;13.43;4.13;;;;;;;9.48;74.69;100171.38;4993371;28;20215;-73
2022/01/03 08:49:42;;;;;;;14.57;4.30;;;;;;;9.49;74.70;100173.06;5002279;28;20570;-73
2022/01/03 08:52:10;;;;;;;12.93;4.50;;;;;;;9.47;74.70;100181.16;5003985;28;20210;-73
2022/01/03 08:54:38;;;;;;;16.00;3.70;;;;;;;9.53;73.72;100174.56;4998129;28;20918;-73
2022/01/03 08:57:04;;;;;;;9.37;2.93;;;;;;;9.54;73.88;100176.25;5009088;28;20222;-73
2022/01/03 08:59:31;;;;;;;14.50;4.10;;;;;;;9.57;73.62;100170.75;5002715;28;20230;-73
2022/01/03 09:01:58;;;;;;;10.03;3.47;;;;;;;9.60;73.66;100166.06;5008466;28;20206;-73
2022/01/03 09:04:24;;;;;;;8.37;3.70;;;;;;;9.63;73.74;100171.19;4999547;28;20242;-73
2022/01/03 09:06:52;;;;;;;19.40;4.10;;;;;;;9.64;73.55;100172.03;5007711;28;20213;-73
2022/01/03 09:09:19;;;;;;;12.07;3.93;;;;;;;9.63;73.36;100171.19;5002496;28;20257;-73
2022/01/03 09:11:47;;;;;;;17.67;4.80;;;;;;;9.59;73.42;100172.34;5012770;28;20230;-74
2022/01/03 09:14:13;;;;;;;13.17;4.63;;;;;;;9.61;72.95;100167.78;5001825;28;20224;-73
2022/01/03 09:16:40;;;;;;;11.70;3.40;;;;;;;9.63;73.16;100163.22;5004404;28;20202;-73
2022/01/03 09:19:06;;;;;;;13.17;4.17;;;;;;;9.64;73.40;100170.25;5003670;28;20212;-74
2022/01/03 09:21:33;;;;;;;13.80;4.60;;;;;;;9.63;72.96;100165.88;5010955;28;20219;-74
2022/01/03 09:24:19;;;;;;;13.60;5.33;;;;;;;9.62;73.17;100169.50;5007829;28;20211;-74
2022/01/03 09:29:46;;;;;;;12.77;4.10;;;;;;;9.69;73.02;100178.75;4938234;29;20627;-71
2022/01/03 09:32:12;;;;;;;12.40;4.57;;;;;;;9.72;73.02;100183.00;4936568;29;20220;-72
2022/01/03 09:37:19;;;;;;;12.67;3.77;;;;;;;9.75;73.15;100169.50;5013788;28;20264;-68
2022/01/03 09:39:46;;;;;;;15.60;4.17;;;;;;;9.78;72.95;100165.78;5007717;28;20787;-68
2022/01/03 09:42:20;;;;;;;9.13;3.63;;;;;;;9.77;72.64;100161.44;5008386;28;20217;-66
2022/01/03 09:44:49;;;;;;;9.30;3.80;;;;;;;9.76;72.37;100163.22;5001897;28;20221;-67
2022/01/03 09:47:18;;;;;;;10.03;4.10;;;;;;;9.78;72.85;100169.31;4981456;28;20208;-67
2022/01/03 09:49:46;;;;;;;10.30;4.10;;;;;;;9.77;72.25;100177.38;4980174;28;20195;-68
2022/01/03 09:52:14;;;;;;;14.60;4.27;;;;;;;9.72;72.42;100181.19;4989200;28;20219;-68
2022/01/03 09:54:42;;;;;;;10.07;3.97;;;;;;;9.72;72.32;100170.56;4990254;28;20669;-67
2022/01/03 09:57:09;;;;;;;8.70;2.90;;;;;;;9.75;72.28;100169.50;4992511;28;20207;-67
2022/01/03 09:59:37;;;;;;;11.27;3.63;;;;;;;9.77;72.68;100161.44;4989085;28;20207;-66
2022/01/03 10:02:05;;;;;;;11.93;3.20;;;;;;;9.77;72.39;100158.75;4984689;28;20216;-67
2022/01/03 10:04:33;;;;;;;9.60;4.37;;;;;;;9.80;72.20;100150.59;4984741;28;20310;-67
2022/01/03 10:07:00;;;;;;;10.87;3.33;;;;;;;9.83;72.26;100150.38;4988242;28;20242;-67
2022/01/03 10:09:27;;;;;;;9.23;3.00;;;;;;;9.87;71.71;100162.50;4987466;28;21107;-66
2022/01/03 10:11:54;;;;;;;8.90;3.57;;;;;;;9.88;72.21;100149.09;4988355;28;20222;-68
2022/01/03 10:14:21;;;;;;;9.83;3.50;;;;;;;9.96;72.04;100146.78;4986564;28;20270;-66
2022/01/03 10:16:50;;;;;;;11.27;3.50;;;;;;;10.03;71.99;100141.91;4988372;28;20249;-66
2022/01/03 10:19:17;;;;;;;9.17;3.10;;;;;;;10.06;71.60;100136.34;4987345;28;20208;-66
2022/01/03 10:21:45;;;;;;;12.50;3.60;;;;;;;10.10;71.58;100129.84;4985829;28;20224;-66
2022/01/03 10:24:14;;;;;;;10.93;3.83;;;;;;;10.13;71.66;100142.94;4986183;28;20207;-65
2022/01/03 10:26:43;;;;;;;13.13;3.83;;;;;;;10.18;71.86;100134.66;4984522;28;20607;-66
2022/01/03 10:29:17;;;;;;;13.10;4.27;;;;;;;10.20;71.72;100133.63;4981628;28;20606;-66
2022/01/03 10:31:46;;;;;;;13.30;3.47;;;;;;;10.19;71.17;100112.44;4985585;28;20206;-67
2022/01/03 10:34:17;;;;;;;11.80;4.63;;;;;;;10.17;71.37;100131.13;4983169;28;20212;-68
2022/01/03 10:36:47;;;;;;;9.50;4.03;;;;;;;10.19;71.48;100121.28;4984102;28;20232;-67
2022/01/03 10:39:16;;;;;;;11.97;4.00;;;;;;;10.22;71.58;100120.19;4985234;28;20685;-66
2022/01/03 10:41:44;;;;;;;12.13;4.77;;;;;;;10.23;71.51;100117.41;4985443;28;20595;-68
2022/01/03 10:44:11;;;;;;;7.20;4.10;;;;;;;10.26;71.65;100119.00;4982508;28;20237;-71
2022/01/03 10:46:39;;;;;;;13.50;5.17;;;;;;;10.26;71.48;100119.88;4984434;28;20230;-68
2022/01/03 10:49:11;;;;;;;16.97;4.67;;;;;;;10.26;71.48;100135.84;4981505;28;20578;-68
2022/01/03 10:51:40;;;;;;;12.97;3.67;;;;;;;10.27;71.44;100120.72;4984824;28;20198;-70
2022/01/03 10:54:09;;;;;;;14.10;3.77;;;;;;;10.28;71.26;100120.59;4984948;28;20693;-66
2022/01/03 10:56:38;;;;;;;10.50;4.13;;;;;;;10.24;71.35;100127.09;4986017;28;20226;-68
2022/01/03 10:59:21;;;;;;;10.77;3.23;;;;;;;10.27;71.45;100121.56;4986869;28;20231;-67
2022/01/03 11:01:50;;;;;;;13.30;4.33;;;;;;;10.29;71.29;100114.34;4986056;28;20222;-67
2022/01/03 11:04:27;;;;;;;9.23;3.70;;;;;;;10.30;71.08;100118.69;4986303;28;20300;-66
2022/01/03 11:13:04;;;;;;;8.23;4.70;;;;;;;10.31;71.10;100120.41;4985131;28;20262;-65
2022/01/03 11:15:31;;;;;;;9.23;3.93;;;;;;;10.37;70.94;100121.78;4989686;28;20289;-68
2022/01/03 11:18:09;;;;;;;8.93;3.60;;;;;;;10.38;70.87;100116.34;4985774;28;20214;-66
2022/01/03 11:20:35;;;;;;;7.27;3.77;;;;;;;10.43;70.53;100118.66;4985651;28;20231;-67
2022/01/03 11:23:03;;;;;;;15.73;3.80;;;;;;;10.48;70.66;100103.22;4985437;28;20290;-68
2022/01/03 11:25:32;;;;;;;11.07;3.27;;;;;;;10.50;70.69;100092.47;4982787;28;20636;-67
2022/01/03 11:28:00;;;;;;;5.80;2.87;;;;;;;10.51;70.55;100088.84;4985590;28;20290;-68
2022/01/03 11:30:27;;;;;;;10.07;3.40;;;;;;;10.54;70.22;100091.28;4984302;28;20204;-69
2022/01/03 11:32:55;;;;;;;11.73;2.97;;;;;;;10.55;70.21;100085.00;4989438;28;20214;-68
2022/01/03 11:35:23;;;;;;;7.50;2.53;;;;;;;10.54;69.57;100083.31;4987732;28;20238;-67
2022/01/03 11:37:51;;;;;;;9.57;3.80;;;;;;;10.54;69.86;100073.50;4991678;28;20618;-69
2022/01/03 11:40:19;;;;;;;11.80;3.40;;;;;;;10.54;69.74;100077.97;4984460;28;20322;-67
2022/01/03 11:42:47;;;;;;;10.13;2.73;;;;;;;10.55;69.84;100077.03;4990608;28;20200;-68
2022/01/03 11:45:13;;;;;;;9.90;4.10;;;;;;;10.53;69.90;100074.47;4992139;28;20217;-67
2022/01/03 11:47:40;;;;;;;12.33;3.53;;;;;;;10.54;69.98;100068.19;4996187;28;20820;-67